Forestville, Wisconsin
Current Conditions -  °F | °C
As of 12:55 AM on Thursday 27 Nov 2014 (Local Time) from KSUE Reporting Station
Overcast Overcast  
Wind Chill: 15°   Ceiling: 1200
Heat Index: 27°   Visibility: 8mi
Dew Point: 21°   Wind: 15mph
Humidity: 80%   Direction: 350°N
Pressure: 30.17"   Gusts: 21mph
Location:  44.69°N, 87.48°W
Report Text: KSUE 270655Z AUTO 35013G18KT 8SM OVC012 M03/M06 A3017 RMK AO1
Loading
Personal Weather Stations






























Interactive Weather Map New forecast layout! Learn more

10-Day Weather Forecast

Advertisements
Track Severe Weather on mobile